Time;durP1;ratioP1;P1;durP2;ratioP2;P2;SDS_P1;SDS_P2;PMS_P1;PMS_P2;Temp;Humidity;BMP_temperature;BMP_pressure;BME280_temperature;BME280_humidity;BME280_pressure;Samples;Min_cycle;Max_cycle;Signal;HPM_P1;HPM_P2
2022/01/20 00:03:18;;;;;;;2.92;2.22;;;;;;;;;;5060947;28;20055;-70
2022/01/20 00:27:17;;;;;;;3.40;2.30;;;;;;;;;;5060412;28;20090;-69
2022/01/20 00:33:14;;;;;;;3.10;2.80;;;;;;;;;;5058145;28;20071;-70
2022/01/20 00:38:10;;;;;;;2.50;2.30;;;;;;;;;;5047927;28;20580;-70
2022/01/20 00:40:36;;;;;;;3.83;2.78;;;;;;;;;;5058870;28;20058;-70
2022/01/20 00:43:01;;;;;;;2.58;2.35;;;;;;;;;;5059454;28;20021;-71
2022/01/20 00:45:27;;;;;;;2.90;2.25;;;;;;;;;;5058947;28;20040;-69
2022/01/20 00:47:52;;;;;;;2.60;2.10;;;;;;;;;;5058972;28;20094;-69
2022/01/20 00:50:17;;;;;;;3.45;2.30;;;;;;;;;;5059198;28;20037;-69
2022/01/20 00:52:43;;;;;;;1.98;1.50;;;;;;;;;;5059525;28;20037;-71
2022/01/20 00:55:09;;;;;;;3.20;2.42;;;;;;;;;;5062690;28;20428;-69
2022/01/20 00:57:34;;;;;;;2.40;1.90;;;;;;;;;;5045587;28;20683;-70
2022/01/20 01:00:00;;;;;;;3.85;2.72;;;;;;;;;;5063928;28;20040;-70
2022/01/20 01:02:25;;;;;;;2.40;2.13;;;;;;;;;;5062161;28;20036;-69
2022/01/20 01:04:51;;;;;;;5.28;2.00;;;;;;;;;;5061543;28;20032;-69
2022/01/20 01:09:52;;;;;;;2.38;2.17;;;;;;;;;;5078958;28;20481;-70
2022/01/20 01:12:27;;;;;;;3.85;2.00;;;;;;;;;;5078782;28;20039;-70
2022/01/20 01:14:53;;;;;;;2.50;2.10;;;;;;;;;;5062680;28;20125;-70
2022/01/20 01:22:40;;;;;;;2.55;2.30;;;;;;;;;;5056772;28;20045;-70
2022/01/20 01:25:06;;;;;;;2.38;2.17;;;;;;;;;;5061888;28;20539;-70
2022/01/20 01:27:37;;;;;;;1.58;1.48;;;;;;;;;;5056129;28;20409;-73
2022/01/20 01:32:56;;;;;;;3.05;2.55;;;;;;;;;;5046251;28;20048;-70
2022/01/20 01:35:23;;;;;;;3.42;2.20;;;;;;;;;;5062639;28;20043;-69
2022/01/20 01:40:34;;;;;;;2.43;1.87;;;;;;;;;;5061677;28;20036;-70
2022/01/20 01:43:02;;;;;;;1.63;1.45;;;;;;;;;;5061654;28;20370;-71
2022/01/20 01:45:37;;;;;;;1.50;1.40;;;;;;;;;;5063068;28;20099;-71
2022/01/20 01:48:06;;;;;;;5.85;2.55;;;;;;;;;;5067594;28;20032;-71
2022/01/20 01:50:32;;;;;;;1.80;1.70;;;;;;;;;;5047001;28;20025;-71
2022/01/20 01:53:00;;;;;;;3.15;2.40;;;;;;;;;;5078714;28;20047;-70
2022/01/20 01:55:26;;;;;;;2.25;2.05;;;;;;;;;;5061529;28;20036;-70
2022/01/20 01:57:52;;;;;;;1.67;1.58;;;;;;;;;;5062307;28;20054;-71
2022/01/20 02:00:20;;;;;;;2.33;1.95;;;;;;;;;;5060068;28;20485;-70
2022/01/20 02:02:52;;;;;;;1.55;1.45;;;;;;;;;;5061319;28;20036;-70
2022/01/20 02:05:22;;;;;;;2.22;1.95;;;;;;;;;;5056335;28;20137;-70
2022/01/20 02:19:11;;;;;;;3.08;2.03;;;;;;;;;;5077952;28;20119;-70
2022/01/20 02:21:56;;;;;;;3.05;2.08;;;;;;;;;;5076349;28;20169;-69
2022/01/20 02:24:25;;;;;;;2.92;2.45;;;;;;;;;;5073676;28;20510;-70
2022/01/20 02:26:51;;;;;;;2.40;2.20;;;;;;;;;;5060912;28;20553;-70
2022/01/20 02:29:21;;;;;;;2.72;2.15;;;;;;;;;;5060799;28;20067;-69
2022/01/20 02:31:54;;;;;;;2.15;1.52;;;;;;;;;;5076276;28;20024;-69
2022/01/20 02:34:21;;;;;;;3.30;2.47;;;;;;;;;;5060613;28;20047;-69
2022/01/20 02:36:48;;;;;;;1.80;1.70;;;;;;;;;;5060036;28;21130;-69
2022/01/20 02:39:43;;;;;;;2.83;2.08;;;;;;;;;;5060629;28;20044;-69
2022/01/20 02:45:01;;;;;;;2.70;2.05;;;;;;;;;;5077463;28;20042;-70
2022/01/20 02:47:30;;;;;;;3.42;1.77;;;;;;;;;;5060014;28;20059;-70
2022/01/20 02:49:56;;;;;;;2.63;1.95;;;;;;;;;;5060241;28;20050;-70
2022/01/20 02:52:23;;;;;;;2.42;2.22;;;;;;;;;;5061196;28;20403;-69
2022/01/20 02:54:50;;;;;;;1.52;1.42;;;;;;;;;;5059310;28;20589;-70
2022/01/20 02:57:17;;;;;;;2.90;1.50;;;;;;;;;;5043347;28;20033;-70
2022/01/20 02:59:42;;;;;;;3.95;2.53;;;;;;;;;;5076725;28;20036;-69
2022/01/20 03:02:09;;;;;;;1.92;1.52;;;;;;;;;;5059913;28;20048;-70
2022/01/20 03:04:35;;;;;;;2.70;2.15;;;;;;;;;;5058796;28;20041;-70
2022/01/20 03:07:05;;;;;;;2.80;2.30;;;;;;;;;;5059684;28;20627;-70
2022/01/20 03:09:31;;;;;;;3.72;2.72;;;;;;;;;;5061868;28;20459;-68
2022/01/20 03:11:58;;;;;;;2.92;2.58;;;;;;;;;;5061263;28;20178;-68
2022/01/20 03:14:23;;;;;;;1.83;1.70;;;;;;;;;;5060018;28;20139;-70
2022/01/20 03:16:49;;;;;;;3.15;2.85;;;;;;;;;;5059246;28;20140;-70
2022/01/20 03:19:16;;;;;;;3.13;2.70;;;;;;;;;;5043361;28;20032;-71
2022/01/20 03:21:42;;;;;;;3.42;3.13;;;;;;;;;;5076547;28;20033;-69
2022/01/20 03:24:08;;;;;;;3.00;2.70;;;;;;;;;;5059873;28;20068;-70
2022/01/20 03:26:37;;;;;;;3.25;2.63;;;;;;;;;;5058821;28;20047;-69
2022/01/20 03:29:05;;;;;;;4.97;2.80;;;;;;;;;;5059599;28;20043;-69
2022/01/20 03:31:31;;;;;;;3.80;2.67;;;;;;;;;;5059623;28;20576;-70
2022/01/20 03:33:59;;;;;;;6.00;2.80;;;;;;;;;;5076480;28;20119;-70
2022/01/20 03:36:25;;;;;;;4.63;2.70;;;;;;;;;;5042988;28;20439;-70
2022/01/20 03:39:20;;;;;;;1.50;1.40;;;;;;;;;;5058621;28;20068;-70
2022/01/20 03:41:46;;;;;;;2.78;2.47;;;;;;;;;;5059318;28;20416;-70
2022/01/20 03:44:22;;;;;;;2.63;1.95;;;;;;;;;;5059519;28;20039;-70
2022/01/20 03:46:47;;;;;;;4.80;3.58;;;;;;;;;;5060921;28;20029;-70
2022/01/20 03:49:33;;;;;;;3.15;2.85;;;;;;;;;;5059122;28;20036;-71
2022/01/20 03:51:59;;;;;;;4.93;2.78;;;;;;;;;;5060796;28;20044;-71
2022/01/20 03:54:24;;;;;;;2.83;2.47;;;;;;;;;;5059373;28;20041;-70
2022/01/20 03:57:08;;;;;;;5.28;2.63;;;;;;;;;;5059823;28;20055;-70
2022/01/20 03:59:54;;;;;;;2.65;2.28;;;;;;;;;;5059946;28;20048;-70
2022/01/20 04:02:39;;;;;;;3.83;2.47;;;;;;;;;;5060505;28;20060;-71
2022/01/20 04:05:13;;;;;;;4.30;3.25;;;;;;;;;;5056650;28;20083;-71
2022/01/20 04:07:46;;;;;;;3.05;2.75;;;;;;;;;;5059268;28;20063;-72
2022/01/20 04:10:11;;;;;;;2.67;2.28;;;;;;;;;;5058110;28;20454;-71
2022/01/20 04:12:37;;;;;;;3.97;2.78;;;;;;;;;;5059070;28;20032;-70
2022/01/20 04:15:07;;;;;;;2.78;2.35;;;;;;;;;;5076085;28;20044;-71
2022/01/20 04:17:39;;;;;;;3.07;2.47;;;;;;;;;;5076072;28;20032;-70
2022/01/20 04:20:08;;;;;;;7.70;3.70;;;;;;;;;;5040570;28;20794;-72
2022/01/20 04:22:33;;;;;;;2.53;2.22;;;;;;;;;;5057599;28;20124;-71
2022/01/20 04:25:00;;;;;;;2.58;2.38;;;;;;;;;;5058764;28;20045;-70
2022/01/20 04:27:26;;;;;;;1.98;1.85;;;;;;;;;;5059119;28;20404;-70
2022/01/20 04:29:51;;;;;;;5.90;3.10;;;;;;;;;;5064113;28;20400;-70
2022/01/20 04:32:17;;;;;;;5.10;3.55;;;;;;;;;;5062109;28;20141;-70
2022/01/20 04:34:44;;;;;;;4.03;3.33;;;;;;;;;;5062870;28;20036;-70
2022/01/20 04:37:10;;;;;;;9.05;4.28;;;;;;;;;;5063116;28;20050;-70
2022/01/20 04:39:41;;;;;;;4.95;3.03;;;;;;;;;;5062963;28;20024;-70
2022/01/20 04:42:08;;;;;;;2.65;2.45;;;;;;;;;;5062833;28;20125;-70
2022/01/20 04:44:57;;;;;;;6.75;3.63;;;;;;;;;;5061665;28;20703;-69
2022/01/20 04:47:33;;;;;;;4.72;2.15;;;;;;;;;;5062389;28;20137;-69
2022/01/20 04:58:12;;;;;;;6.40;4.10;;;;;;;;;;5063733;28;20057;-70
2022/01/20 05:00:38;;;;;;;3.47;3.15;;;;;;;;;;5061908;28;20071;-70
2022/01/20 05:03:24;;;;;;;5.68;3.45;;;;;;;;;;5063610;28;20419;-72
2022/01/20 05:05:50;;;;;;;2.72;2.53;;;;;;;;;;5078897;28;20550;-70
2022/01/20 05:08:22;;;;;;;3.13;2.83;;;;;;;;;;5067789;28;20032;-73
2022/01/20 05:10:50;;;;;;;2.85;2.15;;;;;;;;;;5062063;28;20029;-72
2022/01/20 05:13:34;;;;;;;4.78;2.47;;;;;;;;;;5068912;28;20036;-72
2022/01/20 05:16:00;;;;;;;5.07;4.05;;;;;;;;;;5048262;28;20041;-72
2022/01/20 05:18:26;;;;;;;5.15;3.65;;;;;;;;;;5056919;28;20028;-72
2022/01/20 05:20:52;;;;;;;3.88;3.30;;;;;;;;;;5044436;28;20055;-72
2022/01/20 05:23:18;;;;;;;7.70;4.13;;;;;;;;;;5061845;28;20064;-72
2022/01/20 05:25:44;;;;;;;4.03;2.78;;;;;;;;;;5062070;28;20082;-73
2022/01/20 05:28:11;;;;;;;5.30;2.88;;;;;;;;;;5036245;28;20047;-73
2022/01/20 05:30:40;;;;;;;4.38;2.88;;;;;;;;;;5060605;28;20159;-73
2022/01/20 05:33:21;;;;;;;5.20;3.85;;;;;;;;;;5062705;28;20246;-73
2022/01/20 05:35:48;;;;;;;3.20;2.88;;;;;;;;;;5079266;28;20067;-73
2022/01/20 05:38:14;;;;;;;4.13;3.70;;;;;;;;;;5053609;28;20068;-72
2022/01/20 05:40:41;;;;;;;8.10;3.30;;;;;;;;;;5077385;28;20039;-71
2022/01/20 05:43:07;;;;;;;4.43;2.92;;;;;;;;;;5061980;28;20036;-70
2022/01/20 05:45:35;;;;;;;4.00;3.55;;;;;;;;;;5061407;28;20035;-71
2022/01/20 05:48:10;;;;;;;4.40;3.83;;;;;;;;;;5062851;28;20424;-71
2022/01/20 05:50:55;;;;;;;4.28;3.33;;;;;;;;;;5061054;28;20064;-70
2022/01/20 05:53:20;;;;;;;5.35;4.25;;;;;;;;;;5061508;28;20041;-71
2022/01/20 05:55:46;;;;;;;6.25;4.22;;;;;;;;;;5059343;28;20040;-71
2022/01/20 05:58:11;;;;;;;5.07;4.20;;;;;;;;;;5061086;28;20555;-72
2022/01/20 06:00:37;;;;;;;6.28;4.53;;;;;;;;;;5059874;28;20063;-71
2022/01/20 06:05:47;;;;;;;3.90;3.00;;;;;;;;;;5048070;28;20039;-71
2022/01/20 06:08:17;;;;;;;3.78;3.20;;;;;;;;;;5045735;28;20024;-70
2022/01/20 06:10:42;;;;;;;6.03;4.57;;;;;;;;;;5045652;28;20043;-70
2022/01/20 06:13:18;;;;;;;7.97;4.10;;;;;;;;;;5059779;28;20055;-71
2022/01/20 06:15:44;;;;;;;5.22;3.45;;;;;;;;;;5046622;28;20036;-70
2022/01/20 06:18:10;;;;;;;5.63;3.22;;;;;;;;;;5058097;28;20031;-71
2022/01/20 06:20:40;;;;;;;5.20;3.50;;;;;;;;;;5058838;28;20036;-70
2022/01/20 06:23:10;;;;;;;5.15;3.20;;;;;;;;;;5059023;28;20048;-71
2022/01/20 06:25:36;;;;;;;5.93;3.90;;;;;;;;;;5060000;28;20127;-71
2022/01/20 06:28:03;;;;;;;5.13;3.78;;;;;;;;;;5059896;28;20036;-70
2022/01/20 06:30:31;;;;;;;5.05;2.90;;;;;;;;;;5061914;28;20100;-70
2022/01/20 06:32:57;;;;;;;3.42;3.08;;;;;;;;;;5060476;28;20556;-71
2022/01/20 06:35:28;;;;;;;4.05;3.30;;;;;;;;;;5068076;28;20046;-70
2022/01/20 06:37:53;;;;;;;3.45;3.15;;;;;;;;;;5061407;28;20032;-70
2022/01/20 06:40:19;;;;;;;3.78;3.28;;;;;;;;;;5060873;28;20032;-70
2022/01/20 06:42:45;;;;;;;4.72;3.83;;;;;;;;;;5050310;28;20028;-70
2022/01/20 06:45:13;;;;;;;3.55;3.22;;;;;;;;;;5058396;28;20032;-70
2022/01/20 06:47:40;;;;;;;4.35;3.80;;;;;;;;;;5059253;28;20773;-70
2022/01/20 06:50:09;;;;;;;3.67;2.83;;;;;;;;;;5076118;28;20043;-70
2022/01/20 06:52:35;;;;;;;5.05;3.40;;;;;;;;;;5058751;28;20075;-70
2022/01/20 06:55:05;;;;;;;3.58;2.80;;;;;;;;;;5060154;28;20115;-70
2022/01/20 06:57:32;;;;;;;4.00;3.08;;;;;;;;;;5057968;28;20043;-70
2022/01/20 07:00:00;;;;;;;3.72;3.05;;;;;;;;;;5059563;28;20032;-70
2022/01/20 07:02:25;;;;;;;4.45;3.63;;;;;;;;;;5051732;28;20466;-70
2022/01/20 07:04:51;;;;;;;5.20;4.07;;;;;;;;;;5061007;28;20089;-70
2022/01/20 07:07:18;;;;;;;5.15;3.17;;;;;;;;;;5061880;28;20396;-69
2022/01/20 07:09:44;;;;;;;4.75;3.55;;;;;;;;;;5063912;28;20046;-69
2022/01/20 07:12:21;;;;;;;4.50;2.65;;;;;;;;;;5060809;28;20841;-69
2022/01/20 07:14:47;;;;;;;4.72;4.05;;;;;;;;;;5063210;28;20035;-70
2022/01/20 07:17:12;;;;;;;6.57;2.60;;;;;;;;;;5048146;28;20037;-70
2022/01/20 07:19:43;;;;;;;3.38;2.65;;;;;;;;;;5065772;28;20070;-70
2022/01/20 07:22:10;;;;;;;7.15;4.32;;;;;;;;;;5065226;28;20040;-70
2022/01/20 07:24:37;;;;;;;3.17;2.88;;;;;;;;;;5064715;28;20626;-71
2022/01/20 07:27:12;;;;;;;2.67;2.47;;;;;;;;;;5081389;28;20042;-71
2022/01/20 07:29:37;;;;;;;5.43;2.80;;;;;;;;;;5048196;28;20036;-71
2022/01/20 07:32:06;;;;;;;3.85;3.15;;;;;;;;;;5064418;28;20393;-70
2022/01/20 07:34:31;;;;;;;1.67;1.55;;;;;;;;;;5066250;28;20040;-71
2022/01/20 07:36:58;;;;;;;4.95;3.17;;;;;;;;;;5063831;28;20048;-71
2022/01/20 07:39:23;;;;;;;7.40;2.75;;;;;;;;;;5062825;28;20115;-71
2022/01/20 07:41:49;;;;;;;3.75;2.88;;;;;;;;;;5059632;28;20056;-71
2022/01/20 07:44:35;;;;;;;2.63;2.42;;;;;;;;;;5060982;28;20040;-71
2022/01/20 07:47:16;;;;;;;1.90;1.80;;;;;;;;;;5044828;28;20040;-71
2022/01/20 07:49:42;;;;;;;4.10;2.63;;;;;;;;;;5059382;28;20044;-71
2022/01/20 07:52:10;;;;;;;2.75;2.20;;;;;;;;;;5058644;28;20105;-71
2022/01/20 07:54:36;;;;;;;2.35;2.15;;;;;;;;;;5058978;28;20568;-70
2022/01/20 07:57:04;;;;;;;4.03;3.13;;;;;;;;;;5064608;28;20033;-72
2022/01/20 07:59:30;;;;;;;2.55;2.13;;;;;;;;;;5059592;28;20064;-71
2022/01/20 08:01:55;;;;;;;2.60;2.40;;;;;;;;;;5058831;28;20067;-71
2022/01/20 08:04:21;;;;;;;7.50;2.50;;;;;;;;;;5043830;28;20041;-71
2022/01/20 08:06:46;;;;;;;2.05;1.85;;;;;;;;;;5061209;28;20037;-71
2022/01/20 08:09:19;;;;;;;2.65;2.20;;;;;;;;;;5063863;28;20040;-70
2022/01/20 08:12:05;;;;;;;2.28;2.08;;;;;;;;;;5062827;28;20139;-71
2022/01/20 08:14:52;;;;;;;2.13;1.98;;;;;;;;;;5062437;28;20047;-70
2022/01/20 08:17:32;;;;;;;5.13;2.83;;;;;;;;;;5064004;28;20124;-69
2022/01/20 08:19:58;;;;;;;2.00;1.75;;;;;;;;;;5065751;28;20507;-70
2022/01/20 08:22:24;;;;;;;2.63;2.42;;;;;;;;;;5080085;28;20108;-69
2022/01/20 08:24:52;;;;;;;2.25;2.05;;;;;;;;;;5063656;28;20512;-69
2022/01/20 08:27:19;;;;;;;4.88;2.95;;;;;;;;;;5064770;28;20036;-69
2022/01/20 08:29:44;;;;;;;2.00;1.90;;;;;;;;;;5062965;28;20043;-68
2022/01/20 08:32:13;;;;;;;5.25;3.33;;;;;;;;;;5065334;28;20115;-69
2022/01/20 08:34:50;;;;;;;2.30;2.10;;;;;;;;;;5064540;28;20032;-69
2022/01/20 08:37:40;;;;;;;3.42;2.50;;;;;;;;;;5068886;28;20064;-70
2022/01/20 08:40:12;;;;;;;2.75;2.55;;;;;;;;;;5070705;28;20067;-70
2022/01/20 08:42:39;;;;;;;1.60;1.50;;;;;;;;;;5058275;28;20477;-70
2022/01/20 08:45:05;;;;;;;1.75;1.65;;;;;;;;;;5073751;28;20032;-70
2022/01/20 08:47:32;;;;;;;2.05;1.90;;;;;;;;;;5061296;28;20024;-70
2022/01/20 08:49:59;;;;;;;2.08;1.85;;;;;;;;;;5068217;28;20036;-70
2022/01/20 08:52:28;;;;;;;2.83;2.63;;;;;;;;;;5064847;28;20040;-70
2022/01/20 08:54:54;;;;;;;2.63;2.30;;;;;;;;;;5063070;28;20059;-70
2022/01/20 08:57:36;;;;;;;;;;;;;;;;;;5062524;28;20094;-70
2022/01/20 09:00:04;;;;;;;1.60;1.50;;;;;;;;;;5080987;28;19912;-71
2022/01/20 09:02:32;;;;;;;3.10;2.80;;;;;;;;;;5057880;28;20032;-70
2022/01/20 09:04:59;;;;;;;2.67;2.10;;;;;;;;;;5063801;28;20491;-70
2022/01/20 09:07:47;;;;;;;1.58;1.48;;;;;;;;;;5064014;28;20511;-70
2022/01/20 09:10:20;;;;;;;2.33;2.13;;;;;;;;;;5069784;28;20049;-70
2022/01/20 09:15:35;;;;;;;2.10;1.90;;;;;;;;;;5061643;28;20130;-70
2022/01/20 09:18:11;;;;;;;2.47;2.28;;;;;;;;;;5062330;28;20517;-70
2022/01/20 09:20:39;;;;;;;2.30;2.10;;;;;;;;;;5062872;28;20441;-70
2022/01/20 09:23:06;;;;;;;3.22;2.08;;;;;;;;;;5078532;28;20075;-69
2022/01/20 09:25:32;;;;;;;2.67;2.47;;;;;;;;;;5061665;28;20032;-70
2022/01/20 09:28:00;;;;;;;2.83;2.47;;;;;;;;;;5079124;28;20032;-71
2022/01/20 09:30:28;;;;;;;2.70;2.50;;;;;;;;;;5060667;28;20397;-70
2022/01/20 09:33:09;;;;;;;1.35;1.25;;;;;;;;;;5078184;28;20028;-71
2022/01/20 09:35:35;;;;;;;3.90;3.55;;;;;;;;;;5063043;28;20032;-70
2022/01/20 09:38:03;;;;;;;2.63;2.42;;;;;;;;;;5064851;28;20040;-70
2022/01/20 09:40:31;;;;;;;3.47;2.90;;;;;;;;;;5065538;28;20032;-70
2022/01/20 09:43:07;;;;;;;2.25;2.05;;;;;;;;;;5068505;28;20055;-70
2022/01/20 09:45:33;;;;;;;3.40;2.95;;;;;;;;;;5067303;28;20431;-69
2022/01/20 09:48:00;;;;;;;3.95;3.17;;;;;;;;;;5050305;28;20029;-70
2022/01/20 09:51:06;;;;;;;1.80;1.70;;;;;;;;;;5067963;28;21004;-70
2022/01/20 09:53:57;;;;;;;4.32;2.65;;;;;;;;;;5055961;28;20044;-69
2022/01/20 09:56:44;;;;;;;2.58;2.38;;;;;;;;;;5061684;28;20040;-69
2022/01/20 09:59:12;;;;;;;2.40;2.20;;;;;;;;;;5063383;28;20032;-70
2022/01/20 10:01:47;;;;;;;2.92;2.63;;;;;;;;;;5064662;28;20036;-69
2022/01/20 10:04:31;;;;;;;3.13;2.78;;;;;;;;;;5067630;28;20089;-69
2022/01/20 10:07:08;;;;;;;1.80;1.60;;;;;;;;;;5065610;28;20435;-70
2022/01/20 10:09:41;;;;;;;2.78;2.50;;;;;;;;;;5062373;28;20047;-70
2022/01/20 10:12:19;;;;;;;2.33;2.15;;;;;;;;;;5062374;28;20055;-70
2022/01/20 10:14:58;;;;;;;3.08;2.70;;;;;;;;;;5062975;28;20036;-69
2022/01/20 10:17:43;;;;;;;3.92;2.63;;;;;;;;;;5047090;28;20036;-69
2022/01/20 10:20:10;;;;;;;3.20;2.85;;;;;;;;;;5062534;28;20032;-70
2022/01/20 10:22:56;;;;;;;2.03;1.92;;;;;;;;;;5063915;28;20501;-69
2022/01/20 10:25:44;;;;;;;2.53;2.35;;;;;;;;;;5064085;28;20972;-71
2022/01/20 10:28:15;;;;;;;2.05;1.83;;;;;;;;;;5063384;28;20064;-69
2022/01/20 10:30:43;;;;;;;4.05;2.00;;;;;;;;;;5061986;28;20128;-70
2022/01/20 10:33:08;;;;;;;2.13;1.90;;;;;;;;;;5063488;28;20061;-70
2022/01/20 10:35:40;;;;;;;2.97;2.77;;;;;;;;;;5062620;28;20046;-70
2022/01/20 10:38:17;;;;;;;3.35;2.83;;;;;;;;;;5060995;28;20068;-70
2022/01/20 10:41:04;;;;;;;4.13;2.60;;;;;;;;;;5065853;28;20033;-70
2022/01/20 10:43:35;;;;;;;3.80;2.55;;;;;;;;;;5045332;28;20720;-70
2022/01/20 10:46:21;;;;;;;2.17;1.90;;;;;;;;;;5063401;28;20093;-70
2022/01/20 10:48:58;;;;;;;2.40;2.20;;;;;;;;;;5060603;28;20124;-70
2022/01/20 10:51:24;;;;;;;2.22;1.90;;;;;;;;;;5073092;28;20036;-70
2022/01/20 10:54:01;;;;;;;3.03;2.83;;;;;;;;;;5063943;28;20723;-70
2022/01/20 10:56:29;;;;;;;3.15;1.80;;;;;;;;;;5061222;28;20032;-70
2022/01/20 10:59:06;;;;;;;2.22;2.03;;;;;;;;;;5076285;28;20034;-69
2022/01/20 11:01:32;;;;;;;4.13;2.58;;;;;;;;;;5062851;28;20039;-69
2022/01/20 11:03:58;;;;;;;2.30;1.98;;;;;;;;;;5078624;28;20033;-71
2022/01/20 11:06:24;;;;;;;2.05;1.77;;;;;;;;;;5059632;28;20044;-71
2022/01/20 11:09:03;;;;;;;2.25;1.83;;;;;;;;;;5058072;28;20024;-70
2022/01/20 11:11:48;;;;;;;2.25;2.03;;;;;;;;;;5059534;28;20028;-69
2022/01/20 11:14:39;;;;;;;3.83;2.63;;;;;;;;;;5059664;28;20086;-70
2022/01/20 11:17:05;;;;;;;2.35;2.15;;;;;;;;;;5059577;28;20401;-70
2022/01/20 11:19:38;;;;;;;3.53;2.67;;;;;;;;;;5062182;28;20441;-70
2022/01/20 11:22:06;;;;;;;2.53;2.22;;;;;;;;;;5051352;28;20452;-71
2022/01/20 11:24:32;;;;;;;6.88;3.47;;;;;;;;;;5058526;28;20519;-70
2022/01/20 11:27:40;;;;;;;2.28;1.80;;;;;;;;;;5067704;28;20066;-71
2022/01/20 11:30:26;;;;;;;3.33;2.70;;;;;;;;;;5061584;28;20055;-71
2022/01/20 11:33:15;;;;;;;3.15;2.00;;;;;;;;;;5062036;28;20201;-71
2022/01/20 11:35:49;;;;;;;2.80;2.47;;;;;;;;;;5061211;28;20036;-71
2022/01/20 11:38:21;;;;;;;4.68;2.30;;;;;;;;;;5059749;28;20102;-71
2022/01/20 11:40:56;;;;;;;3.67;2.80;;;;;;;;;;5058846;28;20028;-71
2022/01/20 11:43:38;;;;;;;2.22;2.03;;;;;;;;;;5060895;28;20067;-71
2022/01/20 11:46:13;;;;;;;2.58;2.05;;;;;;;;;;5059704;28;20051;-71
2022/01/20 11:48:55;;;;;;;2.60;2.28;;;;;;;;;;5060890;28;20104;-71
2022/01/20 11:51:22;;;;;;;2.92;2.72;;;;;;;;;;5062200;28;20093;-70
2022/01/20 11:54:04;;;;;;;3.63;2.72;;;;;;;;;;5064513;28;20393;-69
2022/01/20 11:56:35;;;;;;;3.35;2.03;;;;;;;;;;5066312;28;20040;-70
2022/01/20 11:59:03;;;;;;;3.05;2.35;;;;;;;;;;5067079;28;20047;-70
2022/01/20 12:01:30;;;;;;;2.78;1.52;;;;;;;;;;5066364;28;20090;-69
2022/01/20 12:03:57;;;;;;;1.65;1.48;;;;;;;;;;5064834;28;20115;-71
2022/01/20 12:06:43;;;;;;;4.80;2.33;;;;;;;;;;5050375;28;20047;-72
2022/01/20 12:09:26;;;;;;;3.05;2.03;;;;;;;;;;5061203;28;20040;-71
2022/01/20 12:11:52;;;;;;;1.85;1.38;;;;;;;;;;5061354;28;20025;-70
2022/01/20 12:14:35;;;;;;;2.95;2.15;;;;;;;;;;5061400;28;20512;-71
2022/01/20 12:17:14;;;;;;;2.55;2.05;;;;;;;;;;5061585;28;20040;-71
2022/01/20 12:19:40;;;;;;;2.88;1.55;;;;;;;;;;5061149;28;20028;-71
2022/01/20 12:22:06;;;;;;;1.02;1.02;;;;;;;;;;5061020;28;20500;-71
2022/01/20 12:24:33;;;;;;;5.07;1.50;;;;;;;;;;5059866;28;20040;-70
2022/01/20 12:26:59;;;;;;;5.30;1.90;;;;;;;;;;5061325;28;20035;-70
2022/01/20 12:29:36;;;;;;;3.22;1.98;;;;;;;;;;5062598;28;20036;-72
2022/01/20 12:32:01;;;;;;;2.50;1.20;;;;;;;;;;5058705;28;20044;-72
2022/01/20 12:34:29;;;;;;;4.55;1.70;;;;;;;;;;5060147;28;20489;-71
2022/01/20 12:36:58;;;;;;;1.92;1.55;;;;;;;;;;5059346;28;20056;-72
2022/01/20 12:39:28;;;;;;;4.93;1.50;;;;;;;;;;5060090;28;21045;-71
2022/01/20 12:42:03;;;;;;;3.47;1.65;;;;;;;;;;5061018;28;20067;-71
2022/01/20 12:44:40;;;;;;;5.15;2.10;;;;;;;;;;5061264;28;20577;-71
2022/01/20 12:47:06;;;;;;;3.08;1.85;;;;;;;;;;5059447;28;20068;-71
2022/01/20 12:49:31;;;;;;;2.20;1.40;;;;;;;;;;5061533;28;20136;-71
2022/01/20 12:51:58;;;;;;;5.07;1.88;;;;;;;;;;5063604;28;20036;-71
2022/01/20 12:54:30;;;;;;;3.90;1.27;;;;;;;;;;5063029;28;20971;-71
2022/01/20 12:56:58;;;;;;;2.80;1.20;;;;;;;;;;5063373;28;20086;-71
2022/01/20 12:59:26;;;;;;;1.30;1.20;;;;;;;;;;5062685;28;20044;-70
2022/01/20 13:01:54;;;;;;;2.50;1.63;;;;;;;;;;5062172;28;20125;-70
2022/01/20 13:04:26;;;;;;;4.10;1.92;;;;;;;;;;5066205;28;20040;-70
2022/01/20 13:06:57;;;;;;;;;;;;;;;;;;5062698;28;20066;-69
2022/01/20 13:09:24;;;;;;;1.45;1.35;;;;;;;;;;5061683;28;19920;-70
2022/01/20 13:12:01;;;;;;;3.05;2.05;;;;;;;;;;5061239;28;20036;-72
2022/01/20 13:14:37;;;;;;;4.05;1.80;;;;;;;;;;5062585;28;20470;-72
2022/01/20 13:17:05;;;;;;;7.28;1.52;;;;;;;;;;5062406;28;20370;-71
2022/01/20 13:19:44;;;;;;;4.18;1.92;;;;;;;;;;5043473;28;20033;-71
2022/01/20 13:22:30;;;;;;;5.35;1.65;;;;;;;;;;5062277;28;20068;-69
2022/01/20 13:25:07;;;;;;;4.68;1.55;;;;;;;;;;5063342;28;20044;-69
2022/01/20 13:27:33;;;;;;;1.88;1.50;;;;;;;;;;5062684;28;20044;-69
2022/01/20 13:29:59;;;;;;;3.90;2.22;;;;;;;;;;5063263;28;20082;-69
2022/01/20 13:32:24;;;;;;;7.18;1.95;;;;;;;;;;5061930;28;20040;-69
2022/01/20 13:34:59;;;;;;;3.53;1.80;;;;;;;;;;5062591;28;20044;-69
2022/01/20 13:37:26;;;;;;;7.30;2.50;;;;;;;;;;5060633;28;20047;-70
2022/01/20 13:39:57;;;;;;;1.52;1.33;;;;;;;;;;5061080;28;20064;-69
2022/01/20 13:45:15;;;;;;;7.43;1.27;;;;;;;;;;5060990;28;20036;-70
2022/01/20 13:47:54;;;;;;;1.58;1.27;;;;;;;;;;5060190;28;20034;-72
2022/01/20 13:50:24;;;;;;;2.47;2.08;;;;;;;;;;5062180;28;20469;-70
2022/01/20 13:52:49;;;;;;;2.08;1.70;;;;;;;;;;5079759;28;20032;-69
2022/01/20 13:55:27;;;;;;;4.95;1.95;;;;;;;;;;5063498;28;20399;-71
2022/01/20 13:57:53;;;;;;;5.78;1.40;;;;;;;;;;5062369;28;20059;-70
2022/01/20 14:00:20;;;;;;;0.75;0.75;;;;;;;;;;5062715;28;20094;-71
2022/01/20 14:02:50;;;;;;;5.00;1.90;;;;;;;;;;5062218;28;20033;-71
2022/01/20 14:05:17;;;;;;;1.60;1.50;;;;;;;;;;5060697;28;20036;-71
2022/01/20 14:07:42;;;;;;;4.25;2.00;;;;;;;;;;5062581;28;20046;-71
2022/01/20 14:10:08;;;;;;;5.05;1.50;;;;;;;;;;5062885;28;20424;-71
2022/01/20 14:12:34;;;;;;;1.85;1.40;;;;;;;;;;5064503;28;20024;-71
2022/01/20 14:14:59;;;;;;;2.55;1.30;;;;;;;;;;5060905;28;20313;-70
2022/01/20 14:17:25;;;;;;;1.48;1.20;;;;;;;;;;5063619;28;20129;-70
2022/01/20 14:19:56;;;;;;;1.45;0.98;;;;;;;;;;5066008;28;20032;-70
2022/01/20 14:22:23;;;;;;;2.80;1.88;;;;;;;;;;5064107;28;20124;-70
2022/01/20 14:24:49;;;;;;;3.35;1.92;;;;;;;;;;5066520;28;20123;-70
2022/01/20 14:27:16;;;;;;;3.03;1.60;;;;;;;;;;5062231;28;20181;-70
2022/01/20 14:29:43;;;;;;;3.20;1.38;;;;;;;;;;5061101;28;20029;-70
2022/01/20 14:32:11;;;;;;;5.15;1.92;;;;;;;;;;5063522;28;21087;-70
2022/01/20 14:34:37;;;;;;;2.17;1.50;;;;;;;;;;5062440;28;20040;-69
2022/01/20 14:37:03;;;;;;;2.75;2.25;;;;;;;;;;5063771;28;20556;-70
2022/01/20 14:39:28;;;;;;;3.50;1.95;;;;;;;;;;5064237;28;20031;-70
2022/01/20 14:41:54;;;;;;;2.28;1.70;;;;;;;;;;5063518;28;20485;-70
2022/01/20 14:44:19;;;;;;;4.57;1.70;;;;;;;;;;5066398;28;20040;-70
2022/01/20 14:46:45;;;;;;;4.55;2.15;;;;;;;;;;5063875;28;20056;-70
2022/01/20 14:49:11;;;;;;;5.05;1.65;;;;;;;;;;5062036;28;20040;-70
2022/01/20 14:51:38;;;;;;;2.38;1.50;;;;;;;;;;5062296;28;20578;-70
2022/01/20 14:54:04;;;;;;;3.20;1.77;;;;;;;;;;5065922;28;20036;-70
2022/01/20 14:56:29;;;;;;;1.80;1.63;;;;;;;;;;5061523;28;20041;-70
2022/01/20 14:58:55;;;;;;;4.13;1.70;;;;;;;;;;5062790;28;20070;-71
2022/01/20 15:01:21;;;;;;;2.85;1.98;;;;;;;;;;5062904;28;20032;-70
2022/01/20 15:03:46;;;;;;;2.55;2.17;;;;;;;;;;5061287;28;20040;-71
2022/01/20 15:06:11;;;;;;;2.17;1.98;;;;;;;;;;5061540;28;20397;-70
2022/01/20 15:08:37;;;;;;;1.88;1.42;;;;;;;;;;5061150;28;20040;-71
2022/01/20 15:11:03;;;;;;;4.88;2.58;;;;;;;;;;5062034;28;20424;-70
2022/01/20 15:13:28;;;;;;;1.33;1.23;;;;;;;;;;5061048;28;20481;-71
2022/01/20 15:15:55;;;;;;;1.98;1.65;;;;;;;;;;5064180;28;20036;-70
2022/01/20 15:18:20;;;;;;;6.97;1.67;;;;;;;;;;5063070;28;20040;-70
2022/01/20 15:20:46;;;;;;;2.22;1.80;;;;;;;;;;5064293;28;20036;-70
2022/01/20 15:23:11;;;;;;;2.15;1.95;;;;;;;;;;5064066;28;20131;-70
2022/01/20 15:25:36;;;;;;;1.73;1.63;;;;;;;;;;5062597;28;20036;-71
2022/01/20 15:28:03;;;;;;;3.72;2.33;;;;;;;;;;5062219;28;20059;-70
2022/01/20 15:30:29;;;;;;;2.47;1.75;;;;;;;;;;5065083;28;20041;-69
2022/01/20 15:32:55;;;;;;;0.60;0.57;;;;;;;;;;5062372;28;20028;-70
2022/01/20 15:35:20;;;;;;;1.25;1.15;;;;;;;;;;5063045;28;20047;-70
2022/01/20 15:37:46;;;;;;;1.95;1.40;;;;;;;;;;5062507;28;20544;-70
2022/01/20 15:40:13;;;;;;;1.35;1.25;;;;;;;;;;5059504;28;20032;-70
2022/01/20 15:42:40;;;;;;;1.50;1.05;;;;;;;;;;5061892;28;20067;-70
2022/01/20 15:45:07;;;;;;;5.57;1.10;;;;;;;;;;5058397;28;20548;-70
2022/01/20 15:47:33;;;;;;;1.13;0.95;;;;;;;;;;5060476;28;20123;-69
2022/01/20 15:49:58;;;;;;;6.22;1.08;;;;;;;;;;5061296;28;20059;-70
2022/01/20 15:52:24;;;;;;;0.95;0.77;;;;;;;;;;5053455;28;20041;-71
2022/01/20 15:54:50;;;;;;;2.65;1.25;;;;;;;;;;5058097;28;20041;-71
2022/01/20 15:57:16;;;;;;;7.03;1.95;;;;;;;;;;5061557;28;20059;-71
2022/01/20 15:59:42;;;;;;;1.75;1.33;;;;;;;;;;5061831;28;20033;-70
2022/01/20 16:02:08;;;;;;;2.95;1.40;;;;;;;;;;5057730;28;20035;-70
2022/01/20 16:04:33;;;;;;;9.13;1.50;;;;;;;;;;5055779;28;20607;-70
2022/01/20 16:06:59;;;;;;;5.50;1.67;;;;;;;;;;5057994;28;20062;-73
2022/01/20 16:09:24;;;;;;;3.35;1.52;;;;;;;;;;5057461;28;21414;-70
2022/01/20 16:11:50;;;;;;;3.90;1.73;;;;;;;;;;5057447;28;20032;-68
2022/01/20 16:14:16;;;;;;;7.18;1.85;;;;;;;;;;5056746;28;20397;-69